Time;durP1;ratioP1;P1;durP2;ratioP2;P2;SDS_P1;SDS_P2;PMS_P1;PMS_P2;Temp;Humidity;BMP_temperature;BMP_pressure;BME280_temperature;BME280_humidity;BME280_pressure;Samples;Min_cycle;Max_cycle;Signal;HPM_P1;HPM_P2
2021/10/19 00:00:13;;;;;;;67.25;35.10;;;;;;;5.34;90.77;101663.75;5035186;28;20036;-63
2021/10/19 00:02:39;;;;;;;64.40;34.00;;;;;;;5.31;90.92;101663.88;5045739;28;20043;-63
2021/10/19 00:05:06;;;;;;;65.85;34.78;;;;;;;5.28;91.59;101669.31;5046462;28;20041;-63
2021/10/19 00:07:32;;;;;;;61.90;33.00;;;;;;;5.25;91.51;101672.13;5044541;28;20058;-63
2021/10/19 00:09:57;;;;;;;68.47;33.08;;;;;;;5.25;92.02;101671.28;5046594;28;20033;-63
2021/10/19 00:12:23;;;;;;;50.22;30.00;;;;;;;5.26;91.49;101667.69;5046289;28;20116;-63
2021/10/19 00:14:48;;;;;;;58.22;29.77;;;;;;;5.25;90.92;101669.47;5047480;28;20116;-63
2021/10/19 00:17:14;;;;;;;52.60;30.80;;;;;;;5.24;90.58;101666.88;5049752;28;20021;-67
2021/10/19 00:19:41;;;;;;;51.13;28.02;;;;;;;5.24;89.74;101666.88;5040083;28;20025;-67
2021/10/19 00:22:07;;;;;;;53.42;29.85;;;;;;;5.22;89.57;101658.13;5028284;28;20355;-67
2021/10/19 00:24:32;;;;;;;56.97;29.73;;;;;;;5.11;89.84;101647.06;5028370;28;20417;-67
2021/10/19 00:26:59;;;;;;;50.28;27.45;;;;;;;5.14;90.12;101661.09;5030525;28;20039;-68
2021/10/19 00:29:24;;;;;;;49.47;28.70;;;;;;;5.10;90.17;101653.31;5029278;28;20030;-67
2021/10/19 00:31:52;;;;;;;56.78;28.90;;;;;;;5.06;90.02;101652.59;5029638;28;20033;-67
2021/10/19 00:34:18;;;;;;;51.75;29.08;;;;;;;5.01;90.32;101643.09;5028163;28;20021;-63
2021/10/19 00:36:44;;;;;;;50.83;29.33;;;;;;;5.04;90.28;101650.94;5029533;28;20057;-63
2021/10/19 00:39:10;;;;;;;49.47;27.63;;;;;;;4.97;90.59;101636.19;5028201;28;20068;-63
2021/10/19 00:41:35;;;;;;;52.90;28.67;;;;;;;4.94;90.82;101633.66;5027193;28;20035;-63
2021/10/19 00:44:01;;;;;;;50.25;27.50;;;;;;;4.97;90.86;101645.03;5029102;28;20036;-63
2021/10/19 00:46:27;;;;;;;49.67;28.33;;;;;;;5.00;90.98;101654.66;5028509;28;20062;-63
2021/10/19 00:48:52;;;;;;;48.97;28.48;;;;;;;4.99;91.31;101647.63;5029354;28;20227;-63
2021/10/19 00:51:18;;;;;;;45.90;27.40;;;;;;;4.97;91.37;101636.19;5028995;28;20120;-63
2021/10/19 00:53:45;;;;;;;42.58;24.50;;;;;;;5.00;91.13;101646.69;5028558;28;20105;-63
2021/10/19 00:56:12;;;;;;;45.33;25.58;;;;;;;4.97;91.25;101644.16;5028844;28;20025;-63
2021/10/19 00:58:38;;;;;;;42.75;26.25;;;;;;;4.94;90.99;101638.97;5028562;28;20462;-63
2021/10/19 01:01:04;;;;;;;45.08;26.15;;;;;;;5.00;91.75;101649.34;5028994;28;20740;-63
2021/10/19 01:03:30;;;;;;;42.20;26.10;;;;;;;5.01;92.05;101653.72;5027447;28;20033;-63
2021/10/19 01:05:55;;;;;;;43.67;25.70;;;;;;;5.02;91.78;101651.00;5028716;28;20454;-64
2021/10/19 01:08:21;;;;;;;38.38;24.60;;;;;;;4.96;91.64;101640.63;5028567;28;20113;-64
2021/10/19 01:10:48;;;;;;;43.40;26.40;;;;;;;5.02;91.35;101645.69;5048239;28;20040;-64
2021/10/19 01:13:15;;;;;;;44.25;25.90;;;;;;;5.01;92.16;101649.28;5048389;28;20039;-64
2021/10/19 01:15:40;;;;;;;48.47;27.55;;;;;;;5.02;92.51;101645.69;5048117;28;20029;-65
2021/10/19 01:18:05;;;;;;;49.72;28.02;;;;;;;5.05;92.69;101653.53;5049321;28;20032;-64
2021/10/19 01:20:34;;;;;;;52.25;28.92;;;;;;;5.03;92.50;101646.56;5048857;28;20051;-65
2021/10/19 01:23:02;;;;;;;45.63;28.80;;;;;;;5.01;92.09;101649.28;5047355;28;20052;-65
2021/10/19 01:25:30;;;;;;;49.00;29.20;;;;;;;4.98;91.50;101641.44;5046501;28;20025;-64
2021/10/19 01:28:05;;;;;;;56.95;30.20;;;;;;;5.02;91.11;101650.13;5046875;28;20021;-65
2021/10/19 01:30:31;;;;;;;52.40;30.08;;;;;;;5.04;89.98;101657.13;5048102;28;20024;-65
2021/10/19 01:32:57;;;;;;;56.40;29.55;;;;;;;4.99;89.89;101651.13;5048102;28;20052;-69
2021/10/19 01:35:40;;;;;;;51.35;29.70;;;;;;;4.93;90.14;101642.59;5046680;28;20024;-68
2021/10/19 01:38:09;;;;;;;62.72;31.90;;;;;;;4.96;89.74;101640.63;5048338;28;20032;-69
2021/10/19 01:40:35;;;;;;;61.58;32.13;;;;;;;4.95;89.54;101646.88;5048073;28;20087;-69
2021/10/19 01:43:00;;;;;;;58.25;32.03;;;;;;;4.89;89.00;101652.47;5046775;28;20029;-68
2021/10/19 01:45:26;;;;;;;57.70;31.65;;;;;;;4.84;89.31;101649.16;5042481;28;20139;-68
2021/10/19 01:47:51;;;;;;;58.40;31.70;;;;;;;4.82;89.92;101645.69;5032675;28;20468;-68
2021/10/19 01:50:18;;;;;;;61.63;32.58;;;;;;;4.82;90.16;101645.69;5027734;28;20465;-68
2021/10/19 01:52:45;;;;;;;60.40;34.33;;;;;;;4.71;90.30;101630.19;5026112;28;20033;-70
2021/10/19 01:55:11;;;;;;;61.67;32.50;;;;;;;4.85;89.71;101656.19;5033696;28;20052;-70
2021/10/19 01:57:37;;;;;;;57.67;32.60;;;;;;;4.76;89.61;101645.94;5031845;28;20055;-68
2021/10/19 02:00:06;;;;;;;61.25;32.85;;;;;;;4.74;89.74;101658.44;5027048;28;20033;-69
2021/10/19 02:02:31;;;;;;;65.28;32.78;;;;;;;4.72;89.83;101657.66;5037754;28;20029;-68
2021/10/19 02:04:57;;;;;;;57.67;32.58;;;;;;;4.70;90.02;101657.72;5022344;28;20441;-67
2021/10/19 02:07:22;;;;;;;64.30;33.95;;;;;;;4.66;90.39;101664.09;5026428;28;20152;-63
2021/10/19 02:09:48;;;;;;;66.65;35.08;;;;;;;4.63;89.83;101669.53;5021135;28;20030;-64
2021/10/19 02:12:13;;;;;;;59.42;34.03;;;;;;;4.61;89.42;101675.81;5034363;28;20060;-64
2021/10/19 02:14:39;;;;;;;56.67;33.65;;;;;;;4.51;89.99;101669.16;5021142;28;20048;-63
2021/10/19 02:17:04;;;;;;;62.78;34.38;;;;;;;4.47;90.34;101673.75;5024482;28;20025;-63
2021/10/19 02:19:30;;;;;;;62.60;33.95;;;;;;;4.43;90.56;101671.28;5030551;28;20029;-65
2021/10/19 02:21:56;;;;;;;60.13;34.20;;;;;;;4.46;90.63;101671.16;5022384;28;20145;-65
2021/10/19 02:24:22;;;;;;;57.80;34.78;;;;;;;4.41;90.72;101662.50;5026016;28;20489;-65
2021/10/19 02:26:48;;;;;;;64.53;34.97;;;;;;;4.40;90.96;101666.09;5030037;28;20140;-65
2021/10/19 02:29:19;;;;;;;61.25;34.65;;;;;;;4.40;90.69;101663.44;5021805;28;20491;-65
2021/10/19 02:31:46;;;;;;;61.03;34.05;;;;;;;4.30;90.40;101649.69;5021979;28;20531;-62
2021/10/19 02:34:14;;;;;;;58.47;35.25;;;;;;;4.36;90.18;101665.34;5027375;28;20032;-65
2021/10/19 02:36:39;;;;;;;67.82;37.67;;;;;;;4.29;90.71;101665.69;5021884;28;20025;-65
2021/10/19 02:39:07;;;;;;;65.85;37.63;;;;;;;4.31;91.14;101666.47;5027807;28;20032;-65
2021/10/19 02:41:36;;;;;;;66.47;37.88;;;;;;;4.29;92.14;101663.88;5022419;28;20092;-64
2021/10/19 02:44:02;;;;;;;70.68;40.20;;;;;;;4.29;92.71;101657.72;5026145;28;20056;-65
2021/10/19 02:46:31;;;;;;;65.45;36.22;;;;;;;4.25;92.93;101662.28;5023275;28;20103;-65
2021/10/19 02:48:57;;;;;;;65.68;36.25;;;;;;;4.28;92.79;101672.78;5033541;28;20037;-69
2021/10/19 02:51:22;;;;;;;62.10;35.60;;;;;;;4.30;92.46;101673.59;5019981;28;20352;-69
2021/10/19 02:53:48;;;;;;;66.55;36.17;;;;;;;4.28;92.25;101678.09;5032661;28;20237;-67
2021/10/19 02:56:13;;;;;;;66.15;35.50;;;;;;;4.23;91.43;101666.78;5027141;28;20026;-68
2021/10/19 02:58:39;;;;;;;62.08;35.30;;;;;;;4.29;91.24;101669.19;5026837;28;20346;-68
2021/10/19 03:01:04;;;;;;;61.42;35.67;;;;;;;4.32;90.47;101670.88;5024960;28;20022;-68
2021/10/19 03:03:30;;;;;;;60.50;34.42;;;;;;;4.28;89.85;101672.78;5024400;28;20435;-69
2021/10/19 03:05:55;;;;;;;62.20;36.08;;;;;;;4.24;89.08;101668.53;5026569;28;20103;-69
2021/10/19 03:08:22;;;;;;;66.22;36.83;;;;;;;4.26;89.26;101679.94;5025298;28;20056;-69
2021/10/19 03:10:48;;;;;;;71.53;38.25;;;;;;;4.19;89.67;101675.78;5026266;28;20068;-65
2021/10/19 03:13:13;;;;;;;68.70;35.85;;;;;;;4.20;90.34;101679.31;5026386;28;20033;-65
2021/10/19 03:15:39;;;;;;;69.22;37.83;;;;;;;4.15;90.61;101676.84;5026220;28;20064;-64
2021/10/19 03:18:04;;;;;;;62.17;35.70;;;;;;;4.11;90.97;101671.72;5026127;28;20060;-64
2021/10/19 03:20:30;;;;;;;64.25;36.88;;;;;;;4.15;91.06;101670.66;5026666;28;20037;-64
2021/10/19 03:22:56;;;;;;;72.43;35.63;;;;;;;4.16;91.17;101675.06;5026900;28;20044;-64
2021/10/19 03:25:22;;;;;;;65.95;37.63;;;;;;;4.19;91.59;101672.25;5031993;28;20029;-66
2021/10/19 03:27:47;;;;;;;67.43;35.72;;;;;;;4.14;91.86;101660.97;5045828;28;20025;-64
2021/10/19 03:30:12;;;;;;;64.35;38.35;;;;;;;4.17;91.92;101675.00;5023531;28;20064;-64
2021/10/19 03:32:38;;;;;;;69.85;37.55;;;;;;;4.15;92.40;101671.53;5026120;28;20021;-64
2021/10/19 03:35:04;;;;;;;63.35;36.38;;;;;;;4.12;92.95;101676.09;5026284;28;20104;-64
2021/10/19 03:37:29;;;;;;;62.20;36.30;;;;;;;4.19;93.06;101689.06;5024847;28;20030;-64
2021/10/19 03:39:55;;;;;;;67.05;37.17;;;;;;;4.19;93.12;101690.84;5026110;28;20033;-64
2021/10/19 03:42:20;;;;;;;68.03;37.00;;;;;;;4.13;93.59;101677.84;5026126;28;20025;-64
2021/10/19 03:44:46;;;;;;;70.57;37.00;;;;;;;4.20;93.61;101693.44;5024157;28;20491;-64
2021/10/19 03:47:11;;;;;;;61.92;36.13;;;;;;;4.20;93.42;101676.66;5024782;28;20029;-65
2021/10/19 03:49:37;;;;;;;58.80;36.20;;;;;;;4.10;93.29;101657.56;5028217;28;20075;-65
2021/10/19 03:52:02;;;;;;;71.38;36.83;;;;;;;4.26;93.14;101700.31;5030135;28;20048;-65
2021/10/19 03:54:28;;;;;;;68.43;36.70;;;;;;;4.17;93.30;101684.75;5030135;28;20037;-65
2021/10/19 03:56:53;;;;;;;60.17;34.60;;;;;;;4.25;93.63;101704.75;5029562;28;20068;-64
2021/10/19 03:59:19;;;;;;;60.10;32.75;;;;;;;4.19;93.81;101694.38;5029814;28;20041;-65
2021/10/19 04:01:44;;;;;;;70.68;34.35;;;;;;;4.25;93.38;101698.56;5032136;28;20029;-69
2021/10/19 04:04:10;;;;;;;55.17;34.58;;;;;;;4.24;92.99;101697.72;5030420;28;20018;-69
2021/10/19 04:06:35;;;;;;;61.45;35.72;;;;;;;4.28;91.92;101715.25;5029594;28;20459;-68
2021/10/19 04:09:01;;;;;;;58.78;34.20;;;;;;;4.24;91.09;101703.03;5029679;28;20033;-65
2021/10/19 04:11:26;;;;;;;64.95;35.40;;;;;;;4.29;91.51;101709.03;5029752;28;20040;-64
2021/10/19 04:13:52;;;;;;;65.93;35.33;;;;;;;4.28;91.44;101706.41;5029622;28;20349;-64
2021/10/19 04:16:18;;;;;;;61.83;34.65;;;;;;;4.22;91.12;101699.56;5029498;28;20037;-64
2021/10/19 04:18:44;;;;;;;61.45;35.53;;;;;;;4.18;91.70;101708.59;5023380;28;20036;-63
2021/10/19 04:21:10;;;;;;;59.35;35.08;;;;;;;4.22;91.66;101718.16;5026135;28;20022;-65
2021/10/19 04:23:35;;;;;;;63.33;34.60;;;;;;;4.12;92.04;101695.56;5033275;28;20038;-65
2021/10/19 04:26:01;;;;;;;69.05;37.35;;;;;;;4.10;91.80;101696.53;5027484;28;20043;-65
2021/10/19 04:28:26;;;;;;;62.50;34.00;;;;;;;4.15;92.11;101707.84;5042238;28;20035;-65
2021/10/19 04:30:51;;;;;;;69.35;36.55;;;;;;;4.15;92.27;101707.84;5038788;28;20037;-65
2021/10/19 04:33:18;;;;;;;62.60;34.63;;;;;;;4.14;92.21;101711.44;5026557;28;20021;-65
2021/10/19 04:35:44;;;;;;;62.35;35.03;;;;;;;4.09;92.48;101697.44;5029294;28;20029;-64
2021/10/19 04:38:10;;;;;;;64.90;34.60;;;;;;;4.15;92.54;101702.53;5029336;28;20025;-65
2021/10/19 04:40:35;;;;;;;63.53;34.30;;;;;;;4.18;92.11;101708.59;5034004;28;20120;-64
2021/10/19 04:43:01;;;;;;;67.55;34.33;;;;;;;4.12;92.21;101710.59;5026755;28;20036;-63
2021/10/19 04:45:28;;;;;;;68.10;35.72;;;;;;;4.14;92.02;101719.38;5029511;28;20096;-64
2021/10/19 04:47:56;;;;;;;67.40;34.67;;;;;;;4.14;92.14;101711.44;5029652;28;20041;-64
2021/10/19 04:50:21;;;;;;;62.78;34.95;;;;;;;4.13;92.59;101718.50;5030142;28;20034;-63
2021/10/19 04:52:47;;;;;;;66.20;34.85;;;;;;;4.15;92.44;101724.63;5030838;28;20036;-63
2021/10/19 04:55:12;;;;;;;71.95;34.78;;;;;;;4.12;92.24;101719.44;5030048;28;20028;-65
2021/10/19 04:57:38;;;;;;;65.47;36.17;;;;;;;4.11;92.22;101715.06;5029119;28;20044;-64
2021/10/19 05:00:04;;;;;;;65.85;35.53;;;;;;;4.11;92.00;101722.16;5028641;28;20495;-63
2021/10/19 05:02:29;;;;;;;66.13;34.80;;;;;;;4.16;91.97;101720.19;5029031;28;20041;-64
2021/10/19 05:04:55;;;;;;;72.72;35.42;;;;;;;4.10;91.65;101720.44;5028641;28;20079;-65
2021/10/19 05:07:20;;;;;;;68.78;37.00;;;;;;;4.06;91.40;101713.50;5029066;28;20035;-65
2021/10/19 05:09:46;;;;;;;61.28;32.80;;;;;;;4.09;91.68;101721.34;5028575;28;20029;-65
2021/10/19 05:12:11;;;;;;;70.93;32.85;;;;;;;4.01;92.03;101716.34;5028277;28;20114;-64
2021/10/19 05:14:37;;;;;;;55.35;32.17;;;;;;;3.99;92.53;101718.19;5030412;28;20025;-64
2021/10/19 05:17:02;;;;;;;58.63;32.42;;;;;;;3.99;92.81;101714.66;5021944;28;20506;-63
2021/10/19 05:19:28;;;;;;;62.08;30.80;;;;;;;3.96;92.85;101712.13;5030377;28;20509;-64
2021/10/19 05:21:53;;;;;;;62.22;32.72;;;;;;;3.98;92.94;101705.84;5028347;28;20040;-64
2021/10/19 05:24:19;;;;;;;61.63;32.25;;;;;;;4.00;93.23;101724.38;5026398;28;20074;-64
2021/10/19 05:26:46;;;;;;;63.50;32.58;;;;;;;3.99;93.21;101725.28;5029415;28;20028;-63
2021/10/19 05:29:13;;;;;;;64.95;34.33;;;;;;;4.01;93.29;101734.94;5024242;28;20467;-64
2021/10/19 05:31:38;;;;;;;62.95;32.03;;;;;;;3.98;93.82;101726.22;5024819;28;20087;-63
2021/10/19 05:34:03;;;;;;;66.55;34.28;;;;;;;4.00;94.21;101722.56;5032167;28;20030;-63
2021/10/19 05:36:29;;;;;;;71.63;33.22;;;;;;;3.97;94.25;101721.84;5024770;28;20037;-65
2021/10/19 05:38:55;;;;;;;59.00;32.15;;;;;;;4.05;93.95;101733.88;5030553;28;20026;-63
2021/10/19 05:41:20;;;;;;;67.47;35.08;;;;;;;4.05;93.54;101733.88;5036818;28;20163;-64
2021/10/19 05:43:45;;;;;;;62.72;34.00;;;;;;;4.09;93.70;101740.81;5047706;28;20039;-64
2021/10/19 05:46:12;;;;;;;60.40;33.60;;;;;;;4.03;93.86;101733.06;5048641;28;20118;-65
2021/10/19 05:48:39;;;;;;;60.58;33.17;;;;;;;4.08;93.93;101757.66;5047978;28;20024;-65
2021/10/19 05:51:05;;;;;;;62.25;31.73;;;;;;;4.08;93.98;101756.78;5048614;28;20027;-65
2021/10/19 05:53:30;;;;;;;60.22;32.58;;;;;;;4.15;94.33;101758.28;5048370;28;20028;-69
2021/10/19 05:55:55;;;;;;;63.30;33.15;;;;;;;4.18;94.38;101755.50;5044206;28;20502;-68
2021/10/19 05:58:21;;;;;;;62.35;34.25;;;;;;;4.12;94.61;101742.47;5027841;28;20072;-69
2021/10/19 06:00:46;;;;;;;68.22;34.65;;;;;;;4.24;95.12;101758.81;5028472;28;20029;-67
2021/10/19 06:03:12;;;;;;;63.67;36.65;;;;;;;4.22;95.76;101757.09;5028084;28;20032;-68
2021/10/19 06:05:37;;;;;;;62.45;37.50;;;;;;;4.21;96.87;101752.72;5028378;28;20021;-68
2021/10/19 06:08:03;;;;;;;63.65;36.95;;;;;;;4.33;97.91;101760.22;5043572;28;20609;-68
2021/10/19 06:10:28;;;;;;;63.78;37.30;;;;;;;4.31;98.99;101751.44;5048515;28;20032;-69
2021/10/19 06:12:54;;;;;;;58.03;37.97;;;;;;;4.41;99.67;101768.75;5047350;28;20029;-68
2021/10/19 06:15:20;;;;;;;69.30;39.40;;;;;;;4.40;100.00;101761.72;5048769;28;20033;-68
2021/10/19 06:17:46;;;;;;;60.90;38.13;;;;;;;4.51;100.00;101760.38;5044078;28;20033;-69
2021/10/19 06:20:12;;;;;;;64.95;38.80;;;;;;;4.54;100.00;101759.38;5029347;28;20033;-69
2021/10/19 06:22:38;;;;;;;65.22;39.00;;;;;;;4.65;100.00;101765.13;5028386;28;20052;-69
2021/10/19 06:25:06;;;;;;;67.10;38.55;;;;;;;4.74;100.00;101770.91;5028873;28;20426;-69
2021/10/19 06:27:33;;;;;;;70.07;39.65;;;;;;;4.78;100.00;101752.19;5038985;28;20447;-69
2021/10/19 06:29:59;;;;;;;64.35;39.85;;;;;;;4.92;100.00;101777.28;5027544;28;20052;-68
2021/10/19 06:32:24;;;;;;;59.25;37.30;;;;;;;5.06;100.00;101776.72;5028046;28;20033;-69
2021/10/19 06:34:50;;;;;;;64.57;38.75;;;;;;;5.23;100.00;101777.72;5029241;28;20029;-69
2021/10/19 06:37:15;;;;;;;64.90;37.70;;;;;;;5.36;100.00;101775.41;5048353;28;20486;-69
2021/10/19 06:39:41;;;;;;;63.53;39.05;;;;;;;5.48;100.00;101786.34;5047525;28;20483;-69
2021/10/19 06:42:06;;;;;;;71.85;41.38;;;;;;;5.58;100.00;101778.84;5046931;28;20103;-68
2021/10/19 06:44:32;;;;;;;68.25;41.10;;;;;;;5.68;100.00;101778.34;5047237;28;20045;-68
2021/10/19 06:46:57;;;;;;;69.72;42.00;;;;;;;5.79;100.00;101786.75;5045405;28;20033;-69
2021/10/19 06:49:23;;;;;;;61.67;39.05;;;;;;;5.93;100.00;101791.50;5028851;28;20102;-68
2021/10/19 06:51:48;;;;;;;65.28;39.13;;;;;;;6.05;100.00;101790.91;5026918;28;20040;-68
2021/10/19 06:54:14;;;;;;;65.75;38.38;;;;;;;6.20;100.00;101791.09;5026327;28;20022;-67
2021/10/19 06:56:39;;;;;;;56.45;37.58;;;;;;;6.32;100.00;101787.00;5026451;28;20086;-68
2021/10/19 06:59:05;;;;;;;63.72;39.70;;;;;;;6.45;100.00;101785.47;5026853;28;20094;-68
2021/10/19 07:01:30;;;;;;;61.45;37.33;;;;;;;6.56;100.00;101785.81;5033398;28;20029;-69
2021/10/19 07:03:56;;;;;;;61.95;38.10;;;;;;;6.77;100.00;101798.09;5037090;28;20029;-68
2021/10/19 07:06:21;;;;;;;60.83;37.97;;;;;;;6.99;100.00;101786.31;5039734;28;20047;-69
2021/10/19 07:08:48;;;;;;;60.33;38.45;;;;;;;7.13;100.00;101776.75;5030516;28;20067;-69
2021/10/19 07:11:13;;;;;;;60.25;38.70;;;;;;;7.19;100.00;101776.44;5043228;28;20495;-69
2021/10/19 07:13:39;;;;;;;55.65;35.40;;;;;;;7.53;100.00;101793.31;5026163;28;20026;-68
2021/10/19 07:16:04;;;;;;;50.22;34.08;;;;;;;7.66;100.00;101778.38;5044507;28;20029;-70
2021/10/19 07:18:30;;;;;;;56.17;36.13;;;;;;;7.81;100.00;101772.25;5034575;28;20034;-69
2021/10/19 07:20:55;;;;;;;47.25;32.03;;;;;;;7.98;100.00;101774.00;5026741;28;20025;-70
2021/10/19 07:23:21;;;;;;;46.85;29.88;;;;;;;8.17;100.00;101767.56;5024383;28;20026;-68
2021/10/19 07:25:47;;;;;;;43.60;30.80;;;;;;;8.32;100.00;101771.25;5037142;28;20115;-68
2021/10/19 07:28:13;;;;;;;52.03;31.08;;;;;;;8.48;100.00;101764.09;5031083;28;20040;-68
2021/10/19 07:30:38;;;;;;;51.47;31.52;;;;;;;8.91;100.00;101758.84;5026165;28;20025;-69
2021/10/19 07:33:04;;;;;;;49.78;32.42;;;;;;;9.67;100.00;101760.50;5026480;28;20155;-69
2021/10/19 07:35:30;;;;;;;40.40;28.33;;;;;;;10.52;96.32;101759.56;5026395;28;20083;-68
2021/10/19 07:37:55;;;;;;;41.03;27.30;;;;;;;11.39;87.91;101766.22;5031285;28;20486;-68
2021/10/19 07:40:22;;;;;;;37.38;26.30;;;;;;;12.26;80.88;101751.94;5026170;28;20431;-69
2021/10/19 07:42:48;;;;;;;35.00;25.50;;;;;;;13.21;73.86;101758.28;5026954;28;20031;-69
2021/10/19 07:45:14;;;;;;;31.48;24.75;;;;;;;13.94;69.58;101743.53;5038481;28;20087;-69
2021/10/19 07:47:42;;;;;;;32.63;23.95;;;;;;;14.72;64.47;101755.13;5028056;28;20038;-69
2021/10/19 07:50:09;;;;;;;31.05;22.70;;;;;;;15.30;61.32;101744.75;5040429;28;20098;-68
2021/10/19 07:52:35;;;;;;;31.35;23.63;;;;;;;15.65;59.42;101764.28;5027499;28;21048;-68
2021/10/19 07:55:00;;;;;;;27.55;21.85;;;;;;;15.53;59.25;101769.84;5032180;28;20048;-69
2021/10/19 07:57:26;;;;;;;33.75;23.48;;;;;;;15.19;59.97;101781.78;5045825;28;20040;-63
2021/10/19 07:59:51;;;;;;;31.13;22.90;;;;;;;14.79;61.36;101777.94;5045600;28;20029;-62
2021/10/19 08:02:16;;;;;;;27.77;22.98;;;;;;;14.43;63.46;101772.84;5046296;28;20037;-63
2021/10/19 08:04:42;;;;;;;30.25;23.48;;;;;;;14.11;65.14;101769.13;5045496;28;20115;-64
2021/10/19 08:07:07;;;;;;;34.30;23.52;;;;;;;13.78;67.08;101767.28;5028663;28;20029;-64
2021/10/19 08:09:33;;;;;;;30.88;22.50;;;;;;;13.55;68.10;101773.59;5024498;28;20039;-65
2021/10/19 08:11:59;;;;;;;34.35;23.52;;;;;;;13.28;69.05;101768.47;5025934;28;20022;-63
2021/10/19 08:14:24;;;;;;;32.30;23.27;;;;;;;13.14;70.48;101775.88;5024745;28;20044;-64
2021/10/19 08:16:49;;;;;;;31.63;22.83;;;;;;;12.97;71.28;101787.03;5026108;28;20041;-64
2021/10/19 08:19:15;;;;;;;35.65;22.85;;;;;;;12.83;73.03;101779.13;5025993;28;20029;-64
2021/10/19 08:21:40;;;;;;;29.83;22.77;;;;;;;12.73;73.17;101778.06;5025638;28;20036;-64
2021/10/19 08:24:06;;;;;;;31.77;22.58;;;;;;;12.64;73.41;101774.22;5025738;28;20025;-64
2021/10/19 08:26:32;;;;;;;30.27;21.80;;;;;;;12.59;74.08;101775.53;5042439;28;20537;-65
2021/10/19 08:28:58;;;;;;;36.97;22.08;;;;;;;12.55;74.57;101782.13;5045242;28;20156;-63
2021/10/19 08:31:24;;;;;;;29.98;20.05;;;;;;;12.55;74.84;101779.44;5045348;28;20024;-64
2021/10/19 08:33:50;;;;;;;31.30;20.30;;;;;;;12.56;74.28;101776.63;5045420;28;20036;-64
2021/10/19 08:36:17;;;;;;;31.23;19.88;;;;;;;12.57;74.09;101788.22;5047811;28;20016;-64
2021/10/19 08:38:43;;;;;;;30.80;19.13;;;;;;;12.62;73.47;101792.34;5048710;28;20051;-64
2021/10/19 08:41:11;;;;;;;30.05;18.48;;;;;;;12.63;72.31;101785.97;5049044;28;20033;-64
2021/10/19 08:43:38;;;;;;;30.52;18.42;;;;;;;12.66;72.10;101793.81;5047518;28;20032;-64
2021/10/19 08:46:11;;;;;;;28.38;17.63;;;;;;;12.70;70.45;101791.75;5048701;28;20061;-64
2021/10/19 08:48:38;;;;;;;24.77;16.52;;;;;;;12.78;69.92;101789.38;5047464;28;20110;-63
2021/10/19 08:51:05;;;;;;;29.02;18.05;;;;;;;12.84;69.15;101786.22;5048957;28;20437;-64
2021/10/19 08:53:30;;;;;;;30.63;16.95;;;;;;;12.92;67.56;101779.28;5048515;28;20363;-64
2021/10/19 08:55:56;;;;;;;24.17;15.93;;;;;;;13.00;67.71;101785.00;5048571;28;20029;-63
2021/10/19 08:58:21;;;;;;;23.17;15.02;;;;;;;13.13;66.92;101782.25;5048832;28;20048;-63
2021/10/19 09:00:47;;;;;;;26.95;15.07;;;;;;;13.23;66.69;101784.13;5048314;28;20422;-63
2021/10/19 09:03:12;;;;;;;24.60;14.45;;;;;;;13.40;65.41;101781.03;5048775;28;20033;-64
2021/10/19 09:05:38;;;;;;;18.30;12.55;;;;;;;13.60;62.99;101774.09;5031386;28;20037;-63
2021/10/19 09:08:05;;;;;;;16.15;11.15;;;;;;;13.83;61.80;101778.56;5026981;28;20029;-64
2021/10/19 09:10:33;;;;;;;17.80;11.05;;;;;;;14.05;59.14;101770.50;5028484;28;20029;-63
2021/10/19 09:13:26;;;;;;;16.88;10.82;;;;;;;14.44;57.92;101775.44;5027924;28;20049;-63
2021/10/19 09:15:51;;;;;;;17.80;11.05;;;;;;;15.05;57.07;101760.44;5040917;28;20098;-63
2021/10/19 09:18:20;;;;;;;16.23;10.15;;;;;;;16.38;53.08;101769.47;5048154;28;20021;-62
2021/10/19 09:20:52;;;;;;;11.93;9.18;;;;;;;18.16;47.72;101750.88;5032048;28;20029;-62
2021/10/19 09:23:21;;;;;;;11.60;7.60;;;;;;;20.05;43.64;101753.22;5028734;28;20044;-63
2021/10/19 09:25:50;;;;;;;11.02;7.93;;;;;;;21.82;38.53;101720.97;5027875;28;20032;-64
2021/10/19 09:28:31;;;;;;;9.63;7.53;;;;;;;23.64;35.70;101733.06;5027895;28;20022;-64
2021/10/19 09:30:58;;;;;;;8.88;7.10;;;;;;;25.14;32.72;101720.66;5027824;28;20052;-63
2021/10/19 09:33:24;;;;;;;8.73;7.07;;;;;;;26.37;30.74;101707.09;5028156;28;20049;-64
2021/10/19 09:35:51;;;;;;;9.00;6.85;;;;;;;27.37;28.88;101688.84;5029996;28;20083;-64
2021/10/19 09:38:18;;;;;;;8.23;6.40;;;;;;;28.08;28.06;101693.50;5027824;28;20029;-63
2021/10/19 09:40:46;;;;;;;7.22;6.50;;;;;;;28.75;27.10;101701.38;5027693;28;20025;-64
2021/10/19 09:43:18;;;;;;;9.02;7.00;;;;;;;29.18;26.44;101703.25;5027821;28;20060;-63
2021/10/19 09:45:45;;;;;;;7.97;6.95;;;;;;;29.35;25.80;101703.59;5029976;28;20133;-63
2021/10/19 09:48:13;;;;;;;10.10;6.90;;;;;;;29.28;25.91;101692.59;5047354;28;20071;-64
2021/10/19 09:50:40;;;;;;;8.30;6.93;;;;;;;29.56;25.54;101681.09;5047775;28;20139;-64
2021/10/19 09:53:05;;;;;;;8.27;6.18;;;;;;;30.00;25.21;101679.00;5046495;28;20075;-63
2021/10/19 09:55:32;;;;;;;7.50;6.50;;;;;;;30.30;25.11;101681.88;5047602;28;20020;-64
2021/10/19 09:57:58;;;;;;;10.82;6.22;;;;;;;30.43;24.97;101684.50;5046908;28;20025;-64
2021/10/19 10:00:24;;;;;;;9.85;6.32;;;;;;;30.44;24.69;101664.88;5047585;28;20024;-64
2021/10/19 10:02:50;;;;;;;7.53;6.00;;;;;;;30.02;25.07;101671.28;5047439;28;20387;-64
2021/10/19 10:05:17;;;;;;;6.85;5.00;;;;;;;29.42;26.00;101671.19;5047551;28;20033;-62
2021/10/19 10:07:47;;;;;;;7.70;5.93;;;;;;;28.46;26.59;101677.91;5046833;28;20028;-64
2021/10/19 10:10:15;;;;;;;9.30;6.30;;;;;;;27.56;27.84;101672.31;5047390;28;20440;-64
2021/10/19 10:12:44;;;;;;;7.68;6.68;;;;;;;26.71;28.86;101665.81;5047153;28;20071;-63
2021/10/19 10:15:21;;;;;;;8.70;6.28;;;;;;;25.57;30.51;101678.41;5047242;28;20074;-63
2021/10/19 10:17:52;;;;;;;6.97;5.65;;;;;;;24.55;31.87;101669.69;5047093;28;20050;-63
2021/10/19 10:20:18;;;;;;;8.38;5.38;;;;;;;23.58;33.44;101692.72;5047231;28;20032;-63
2021/10/19 10:22:45;;;;;;;8.60;5.85;;;;;;;22.73;34.80;101676.56;5046921;28;20127;-63
2021/10/19 10:25:16;;;;;;;7.57;5.60;;;;;;;21.97;35.84;101691.94;5045865;28;20079;-64
2021/10/19 10:27:42;;;;;;;7.00;5.90;;;;;;;21.26;37.31;101689.09;5046988;28;20090;-64
2021/10/19 10:30:23;;;;;;;10.80;5.85;;;;;;;20.63;38.52;101685.19;5046169;28;20070;-63
2021/10/19 10:32:49;;;;;;;6.57;5.65;;;;;;;20.09;39.82;101675.59;5046028;28;20060;-64
2021/10/19 10:35:19;;;;;;;10.68;5.90;;;;;;;19.68;40.98;101679.13;5047517;28;20021;-64
2021/10/19 10:37:53;;;;;;;7.28;6.18;;;;;;;19.41;41.75;101684.69;5046631;28;20067;-64
2021/10/19 10:40:32;;;;;;;8.38;5.93;;;;;;;19.08;42.47;101669.06;5045543;28;20029;-64
2021/10/19 10:43:01;;;;;;;9.63;6.70;;;;;;;18.79;43.21;101664.88;5046892;28;20090;-62
2021/10/19 10:45:32;;;;;;;9.75;6.75;;;;;;;18.49;43.55;101657.09;5046671;28;20507;-63
2021/10/19 10:48:03;;;;;;;9.38;6.07;;;;;;;18.28;44.95;101659.19;5046429;28;20112;-61
2021/10/19 10:50:30;;;;;;;8.05;5.57;;;;;;;18.11;45.02;101649.97;5046815;28;20512;-63
2021/10/19 10:53:07;;;;;;;9.07;6.22;;;;;;;17.88;44.90;101645.94;5046865;28;20546;-64
2021/10/19 10:55:37;;;;;;;9.68;6.82;;;;;;;17.87;44.96;101652.41;5046621;28;20394;-63
2021/10/19 10:58:03;;;;;;;9.70;6.82;;;;;;;17.69;45.77;101643.31;5046320;28;20025;-63
2021/10/19 11:00:29;;;;;;;9.52;6.07;;;;;;;17.60;46.18;101650.47;5045614;28;20033;-62
2021/10/19 11:03:14;;;;;;;7.85;5.85;;;;;;;17.51;46.30;101647.81;5046445;28;20032;-62
2021/10/19 11:05:51;;;;;;;11.13;5.88;;;;;;;17.37;46.46;101632.81;5046667;28;20017;-64
2021/10/19 11:08:34;;;;;;;10.45;6.15;;;;;;;17.37;47.16;101649.09;5030232;28;20033;-63
2021/10/19 11:11:08;;;;;;;7.05;5.45;;;;;;;17.28;46.41;101644.53;5024758;28;20172;-64
2021/10/19 11:13:47;;;;;;;7.10;5.00;;;;;;;17.24;46.78;101650.38;5026810;28;20551;-62